Time;durP1;ratioP1;P1;durP2;ratioP2;P2;SDS_P1;SDS_P2;PMS_P1;PMS_P2;Temp;Humidity;BMP_temperature;BMP_pressure;BME280_temperature;BME280_humidity;BME280_pressure;Samples;Min_cycle;Max_cycle;Signal;HPM_P1;HPM_P2
2021/10/02 00:34:13;;;;;;;10.17;5.40;;;;;;;;;;5135563;27;20291;-63
2021/10/02 00:36:57;;;;;;;6.77;5.20;;;;;;;;;;5135742;27;20218;-63
2021/10/02 00:44:57;;;;;;;9.67;7.73;;;;;;;;;;5134905;27;20224;-63
2021/10/02 00:47:27;;;;;;;15.33;8.97;;;;;;;;;;5134605;27;20686;-63
2021/10/02 00:49:56;;;;;;;10.70;7.43;;;;;;;;;;5134554;27;20236;-63
2021/10/02 00:52:24;;;;;;;10.47;7.10;;;;;;;;;;5135223;27;20210;-63
2021/10/02 00:54:52;;;;;;;12.33;7.10;;;;;;;;;;5135134;27;20224;-63
2021/10/02 00:57:22;;;;;;;9.63;6.53;;;;;;;;;;5134831;27;20219;-63
2021/10/02 00:59:50;;;;;;;8.43;6.10;;;;;;;;;;5134562;27;20559;-63
2021/10/02 01:02:21;;;;;;;9.93;6.67;;;;;;;;;;5126428;27;20246;-63
2021/10/02 01:04:56;;;;;;;12.23;6.50;;;;;;;;;;5121040;27;20588;-63
2021/10/02 01:07:27;;;;;;;9.40;6.00;;;;;;;;;;5121335;28;20211;-63
2021/10/02 01:10:13;;;;;;;11.77;6.30;;;;;;;;;;5120986;28;20201;-64
2021/10/02 01:12:48;;;;;;;13.67;7.60;;;;;;;;;;5121039;28;20239;-63
2021/10/02 01:15:21;;;;;;;9.40;6.27;;;;;;;;;;5121049;28;20722;-63
2021/10/02 01:17:53;;;;;;;8.70;5.73;;;;;;;;;;5120754;28;20209;-63
2021/10/02 01:20:28;;;;;;;9.00;6.83;;;;;;;;;;5120911;28;20291;-63
2021/10/02 01:23:02;;;;;;;10.20;6.83;;;;;;;;;;5120887;28;20208;-63
2021/10/02 01:25:43;;;;;;;9.83;6.93;;;;;;;;;;5120697;28;20220;-63
2021/10/02 01:28:14;;;;;;;16.07;7.07;;;;;;;;;;5107896;28;20287;-63
2021/10/02 01:30:59;;;;;;;9.03;5.83;;;;;;;;;;5120829;28;20258;-63
2021/10/02 01:33:35;;;;;;;6.70;5.53;;;;;;;;;;5120028;28;20205;-63
2021/10/02 01:36:16;;;;;;;9.97;5.63;;;;;;;;;;5120815;28;20208;-63
2021/10/02 01:47:13;;;;;;;7.97;5.23;;;;;;;;;;5119857;28;20212;-63
2021/10/02 01:49:42;;;;;;;7.90;5.47;;;;;;;;;;5120145;28;20211;-63
2021/10/02 01:52:11;;;;;;;7.93;5.77;;;;;;;;;;5120180;28;20235;-63
2021/10/02 01:54:41;;;;;;;8.17;5.60;;;;;;;;;;5119863;27;20229;-63
2021/10/02 01:57:10;;;;;;;6.83;5.10;;;;;;;;;;5119845;28;20291;-63
2021/10/02 01:59:40;;;;;;;7.90;5.03;;;;;;;;;;5120277;28;20205;-63
2021/10/02 02:02:09;;;;;;;8.10;4.70;;;;;;;;;;5119645;28;20678;-63
2021/10/02 02:04:39;;;;;;;8.97;5.17;;;;;;;;;;5120065;28;20236;-63
2021/10/02 02:07:07;;;;;;;4.83;4.23;;;;;;;;;;5119855;28;20219;-63
2021/10/02 02:09:40;;;;;;;9.13;5.20;;;;;;;;;;5119719;28;20205;-63
2021/10/02 02:12:17;;;;;;;7.37;4.43;;;;;;;;;;5119579;28;20584;-63
2021/10/02 02:14:46;;;;;;;8.70;4.57;;;;;;;;;;5118789;28;20231;-63
2021/10/02 02:17:16;;;;;;;5.63;4.57;;;;;;;;;;5119499;28;20738;-63
2021/10/02 02:19:45;;;;;;;11.97;5.00;;;;;;;;;;5120066;28;20295;-64
2021/10/02 02:22:14;;;;;;;7.40;4.50;;;;;;;;;;5119966;27;20211;-63
2021/10/02 02:24:41;;;;;;;7.10;4.40;;;;;;;;;;5119711;27;20225;-63
2021/10/02 02:27:10;;;;;;;6.63;4.30;;;;;;;;;;5119348;28;20690;-63
2021/10/02 02:29:38;;;;;;;5.57;4.57;;;;;;;;;;5119842;28;20215;-63
2021/10/02 02:32:08;;;;;;;7.73;5.03;;;;;;;;;;5118714;28;20339;-63
2021/10/02 02:34:36;;;;;;;7.40;4.60;;;;;;;;;;5119421;28;20250;-63
2021/10/02 02:37:04;;;;;;;5.93;4.90;;;;;;;;;;5119302;28;20571;-63
2021/10/02 02:39:32;;;;;;;9.07;4.70;;;;;;;;;;5119389;28;20230;-63
2021/10/02 02:42:00;;;;;;;10.63;5.23;;;;;;;;;;5119349;28;20205;-63
2021/10/02 02:44:28;;;;;;;8.07;4.90;;;;;;;;;;5119043;28;20235;-63
2021/10/02 02:47:00;;;;;;;9.70;4.97;;;;;;;;;;5118648;28;20208;-63
2021/10/02 02:49:33;;;;;;;8.50;5.33;;;;;;;;;;5119095;28;20288;-63
2021/10/02 02:52:03;;;;;;;9.53;5.40;;;;;;;;;;5119739;28;20225;-63
2021/10/02 02:54:34;;;;;;;7.13;5.37;;;;;;;;;;5120259;28;20232;-63
2021/10/02 02:57:05;;;;;;;7.30;5.50;;;;;;;;;;5120468;28;20205;-63
2021/10/02 02:59:35;;;;;;;8.23;5.47;;;;;;;;;;5120115;28;20293;-63
2021/10/02 03:02:04;;;;;;;9.03;5.80;;;;;;;;;;5120185;28;20197;-63
2021/10/02 03:04:34;;;;;;;9.93;5.13;;;;;;;;;;5120070;28;20241;-63
2021/10/02 03:07:05;;;;;;;7.13;4.87;;;;;;;;;;5119648;28;20243;-63
2021/10/02 03:09:34;;;;;;;8.63;6.27;;;;;;;;;;5119781;28;20209;-63
2021/10/02 03:12:02;;;;;;;9.33;5.57;;;;;;;;;;5120016;28;20684;-62
2021/10/02 03:14:31;;;;;;;8.47;5.90;;;;;;;;;;5119052;28;20231;-62
2021/10/02 03:17:00;;;;;;;9.93;6.07;;;;;;;;;;5118220;28;20201;-63
2021/10/02 03:19:30;;;;;;;8.63;6.40;;;;;;;;;;5118342;28;20204;-63
2021/10/02 03:21:59;;;;;;;8.87;6.57;;;;;;;;;;5118737;28;20204;-63
2021/10/02 03:24:27;;;;;;;8.73;6.27;;;;;;;;;;5118282;28;20213;-63
2021/10/02 03:26:56;;;;;;;8.47;6.27;;;;;;;;;;5118115;28;20201;-63
2021/10/02 03:29:24;;;;;;;9.50;6.83;;;;;;;;;;5118478;28;20209;-63
2021/10/02 03:31:52;;;;;;;8.97;6.57;;;;;;;;;;5118062;28;20229;-63
2021/10/02 03:34:20;;;;;;;11.30;7.17;;;;;;;;;;5118550;28;20229;-63
2021/10/02 03:36:49;;;;;;;10.83;6.27;;;;;;;;;;5118599;28;20209;-63
2021/10/02 03:39:18;;;;;;;8.67;6.30;;;;;;;;;;5118495;28;20268;-63
2021/10/02 03:42:01;;;;;;;10.67;6.17;;;;;;;;;;5118283;28;20235;-63
2021/10/02 03:44:29;;;;;;;10.30;5.90;;;;;;;;;;5118254;28;20231;-63
2021/10/02 03:46:57;;;;;;;8.00;6.00;;;;;;;;;;5117850;28;20291;-63
2021/10/02 03:49:25;;;;;;;9.23;6.60;;;;;;;;;;5118154;28;20216;-63
2021/10/02 03:51:53;;;;;;;12.90;6.97;;;;;;;;;;5117603;28;20239;-63
2021/10/02 03:54:22;;;;;;;12.20;6.37;;;;;;;;;;5117671;28;20221;-63
2021/10/02 03:56:50;;;;;;;11.90;6.60;;;;;;;;;;5117925;28;20212;-63
2021/10/02 03:59:18;;;;;;;9.00;5.77;;;;;;;;;;5118135;28;20204;-63
2021/10/02 04:01:46;;;;;;;7.00;5.43;;;;;;;;;;5117835;28;20212;-63
2021/10/02 04:04:15;;;;;;;9.03;6.33;;;;;;;;;;5117905;28;20224;-63
2021/10/02 04:06:43;;;;;;;8.67;5.57;;;;;;;;;;5118029;28;20210;-63
2021/10/02 04:09:11;;;;;;;9.20;5.63;;;;;;;;;;5118282;28;20211;-63
2021/10/02 04:11:40;;;;;;;8.67;6.10;;;;;;;;;;5118018;28;20207;-63
2021/10/02 04:14:08;;;;;;;10.83;7.07;;;;;;;;;;5117867;28;20263;-63
2021/10/02 04:16:36;;;;;;;9.80;5.80;;;;;;;;;;5117584;28;20201;-63
2021/10/02 04:19:04;;;;;;;8.90;6.13;;;;;;;;;;5117927;28;20208;-63
2021/10/02 04:21:32;;;;;;;10.13;6.10;;;;;;;;;;5117613;28;20567;-63
2021/10/02 04:24:00;;;;;;;7.50;5.53;;;;;;;;;;5117746;28;20221;-63
2021/10/02 04:26:28;;;;;;;11.00;6.67;;;;;;;;;;5117773;28;20203;-63
2021/10/02 04:28:58;;;;;;;7.47;5.87;;;;;;;;;;5117934;28;20280;-63
2021/10/02 04:31:26;;;;;;;7.90;6.23;;;;;;;;;;5120759;27;20197;-63
2021/10/02 04:33:54;;;;;;;10.73;6.40;;;;;;;;;;5121545;28;20774;-63
2021/10/02 04:36:22;;;;;;;7.93;6.20;;;;;;;;;;5119644;28;20542;-63
2021/10/02 04:38:50;;;;;;;6.47;5.50;;;;;;;;;;5118716;28;20211;-63
2021/10/02 04:41:18;;;;;;;7.07;5.77;;;;;;;;;;5121514;27;20569;-63
2021/10/02 04:43:46;;;;;;;11.53;6.93;;;;;;;;;;5122787;27;20253;-63
2021/10/02 04:46:16;;;;;;;7.53;6.17;;;;;;;;;;5120607;28;20632;-63
2021/10/02 04:48:44;;;;;;;8.37;5.63;;;;;;;;;;5138826;27;20705;-63
2021/10/02 04:51:12;;;;;;;8.53;5.50;;;;;;;;;;5122664;27;20297;-63
2021/10/02 04:53:40;;;;;;;7.73;6.47;;;;;;;;;;5121630;28;20236;-63
2021/10/02 04:56:10;;;;;;;10.70;6.50;;;;;;;;;;5121717;28;20670;-63
2021/10/02 04:58:38;;;;;;;8.77;6.27;;;;;;;;;;5121033;28;20227;-63
2021/10/02 05:01:07;;;;;;;12.70;7.07;;;;;;;;;;5121208;28;20209;-65
2021/10/02 05:03:37;;;;;;;9.37;6.83;;;;;;;;;;5121121;28;20659;-64
2021/10/02 05:06:06;;;;;;;9.73;6.23;;;;;;;;;;5121443;28;20207;-63
2021/10/02 05:08:34;;;;;;;9.73;6.73;;;;;;;;;;5121719;28;20205;-63
2021/10/02 05:11:03;;;;;;;11.57;6.93;;;;;;;;;;5121732;28;20211;-62
2021/10/02 05:13:32;;;;;;;12.43;6.90;;;;;;;;;;5121259;28;20242;-64
2021/10/02 05:16:01;;;;;;;11.60;7.03;;;;;;;;;;5114328;28;20241;-63
2021/10/02 05:18:28;;;;;;;10.47;6.20;;;;;;;;;;5112278;28;20204;-62
2021/10/02 05:20:58;;;;;;;10.40;6.80;;;;;;;;;;5120905;28;20205;-62
2021/10/02 05:23:27;;;;;;;9.50;7.20;;;;;;;;;;5120807;28;20201;-62
2021/10/02 05:25:55;;;;;;;12.93;6.60;;;;;;;;;;5121689;28;20201;-63
2021/10/02 05:28:23;;;;;;;10.67;7.13;;;;;;;;;;5122593;28;20227;-65
2021/10/02 05:30:51;;;;;;;12.90;6.33;;;;;;;;;;5120824;28;20571;-65
2021/10/02 05:33:19;;;;;;;13.67;6.00;;;;;;;;;;5120247;28;20229;-65
2021/10/02 05:35:48;;;;;;;11.37;6.00;;;;;;;;;;5120601;28;20231;-65
2021/10/02 05:38:20;;;;;;;9.53;6.13;;;;;;;;;;5120515;28;20833;-64
2021/10/02 05:40:48;;;;;;;9.37;5.23;;;;;;;;;;5120583;28;20227;-64
2021/10/02 05:43:16;;;;;;;7.83;5.20;;;;;;;;;;5120590;28;20201;-64
2021/10/02 05:45:44;;;;;;;8.83;6.13;;;;;;;;;;5113047;27;20216;-64
2021/10/02 05:48:13;;;;;;;10.20;5.80;;;;;;;;;;5107812;28;20211;-64
2021/10/02 05:50:41;;;;;;;9.00;5.10;;;;;;;;;;5109653;28;20233;-64
2021/10/02 05:53:09;;;;;;;8.67;4.87;;;;;;;;;;5108328;28;20256;-64
2021/10/02 05:55:38;;;;;;;7.90;5.30;;;;;;;;;;5106910;28;20554;-64
2021/10/02 05:58:07;;;;;;;7.77;4.43;;;;;;;;;;5108565;28;20197;-65
2021/10/02 06:00:35;;;;;;;9.97;4.40;;;;;;;;;;5108094;28;20204;-64
2021/10/02 06:03:03;;;;;;;6.50;3.80;;;;;;;;;;5107781;28;20204;-64
2021/10/02 06:05:31;;;;;;;7.47;4.00;;;;;;;;;;5105521;28;20747;-64
2021/10/02 06:07:59;;;;;;;5.10;4.13;;;;;;;;;;5110349;28;20567;-64
2021/10/02 06:10:27;;;;;;;5.90;3.40;;;;;;;;;;5105695;28;20197;-65
2021/10/02 06:12:56;;;;;;;4.03;3.33;;;;;;;;;;5107678;28;20283;-65
2021/10/02 06:15:25;;;;;;;5.37;3.57;;;;;;;;;;5107159;28;20629;-65
2021/10/02 06:17:53;;;;;;;5.17;3.60;;;;;;;;;;5109062;28;20198;-65
2021/10/02 06:20:22;;;;;;;6.03;3.30;;;;;;;;;;5108085;28;20203;-65
2021/10/02 06:22:50;;;;;;;5.47;3.00;;;;;;;;;;5107448;28;20201;-65
2021/10/02 06:25:18;;;;;;;4.30;3.03;;;;;;;;;;5107508;28;20281;-64
2021/10/02 06:27:46;;;;;;;3.53;3.00;;;;;;;;;;5109926;28;20200;-64
2021/10/02 06:30:16;;;;;;;3.50;3.20;;;;;;;;;;5110299;28;20204;-65
2021/10/02 06:32:44;;;;;;;5.40;3.47;;;;;;;;;;5119083;28;20258;-63
2021/10/02 06:35:12;;;;;;;4.70;3.20;;;;;;;;;;5119423;28;20242;-63
2021/10/02 06:37:40;;;;;;;4.40;3.10;;;;;;;;;;5119600;28;20292;-64
2021/10/02 06:40:08;;;;;;;5.90;3.20;;;;;;;;;;5119491;28;20300;-63
2021/10/02 06:42:36;;;;;;;5.53;3.37;;;;;;;;;;5113108;28;20213;-62
2021/10/02 06:45:05;;;;;;;3.30;3.00;;;;;;;;;;5119307;28;20232;-63
2021/10/02 06:47:34;;;;;;;3.87;3.37;;;;;;;;;;5117573;28;20359;-63
2021/10/02 06:50:03;;;;;;;5.10;3.37;;;;;;;;;;5103880;28;20234;-63
2021/10/02 06:52:31;;;;;;;5.67;3.57;;;;;;;;;;5122125;27;20197;-63
2021/10/02 06:54:59;;;;;;;3.73;3.40;;;;;;;;;;5118633;28;20229;-63
2021/10/02 06:57:27;;;;;;;3.97;2.73;;;;;;;;;;5118756;28;20209;-63
2021/10/02 06:59:55;;;;;;;3.10;2.80;;;;;;;;;;5118222;28;20204;-62
2021/10/02 07:02:23;;;;;;;4.73;2.60;;;;;;;;;;5117954;28;20211;-62
2021/10/02 07:04:53;;;;;;;3.53;3.13;;;;;;;;;;5118183;28;20591;-62
2021/10/02 07:07:21;;;;;;;3.87;2.37;;;;;;;;;;5110323;27;20214;-62
2021/10/02 07:09:49;;;;;;;4.33;2.90;;;;;;;;;;5139101;27;20215;-62
2021/10/02 07:12:17;;;;;;;3.73;2.57;;;;;;;;;;5139119;27;20204;-63
2021/10/02 07:14:45;;;;;;;5.17;3.03;;;;;;;;;;5139396;27;20236;-63
2021/10/02 07:17:13;;;;;;;4.63;2.73;;;;;;;;;;5138875;27;20208;-62
2021/10/02 07:19:41;;;;;;;3.23;2.33;;;;;;;;;;5139294;27;20221;-63
2021/10/02 07:22:11;;;;;;;4.07;2.60;;;;;;;;;;5138924;27;20200;-63
2021/10/02 07:24:39;;;;;;;4.80;2.93;;;;;;;;;;5132417;27;20304;-63
2021/10/02 07:27:07;;;;;;;3.30;2.60;;;;;;;;;;5118364;28;20208;-62
2021/10/02 07:29:35;;;;;;;3.70;2.90;;;;;;;;;;5118481;28;20204;-63
2021/10/02 07:32:03;;;;;;;4.20;2.67;;;;;;;;;;5111447;28;20206;-62
2021/10/02 07:34:31;;;;;;;3.20;2.83;;;;;;;;;;5104757;28;20221;-62
2021/10/02 07:36:59;;;;;;;4.53;3.10;;;;;;;;;;5105906;28;20204;-62
2021/10/02 07:39:28;;;;;;;3.90;2.40;;;;;;;;;;5104769;28;20201;-62
2021/10/02 07:41:57;;;;;;;5.63;2.80;;;;;;;;;;5102834;28;20202;-62
2021/10/02 07:44:27;;;;;;;3.40;2.87;;;;;;;;;;5104802;28;20223;-63
2021/10/02 07:46:57;;;;;;;6.30;3.93;;;;;;;;;;5114855;27;20281;-62
2021/10/02 07:49:25;;;;;;;5.63;2.50;;;;;;;;;;5117878;28;20207;-63
2021/10/02 07:51:54;;;;;;;3.07;2.40;;;;;;;;;;5112045;28;20235;-62
2021/10/02 07:54:25;;;;;;;6.63;2.90;;;;;;;;;;5098756;28;20226;-63
2021/10/02 07:56:55;;;;;;;3.57;2.67;;;;;;;;;;5101994;28;20201;-63
2021/10/02 07:59:23;;;;;;;3.27;2.97;;;;;;;;;;5116062;28;20553;-62
2021/10/02 08:01:51;;;;;;;3.40;2.33;;;;;;;;;;5111020;28;20230;-62
2021/10/02 08:04:20;;;;;;;3.60;2.20;;;;;;;;;;5105870;28;20213;-62
2021/10/02 08:06:49;;;;;;;4.63;2.50;;;;;;;;;;5103525;28;20203;-61
2021/10/02 08:09:17;;;;;;;3.83;2.73;;;;;;;;;;5100598;28;20225;-62
2021/10/02 08:11:46;;;;;;;3.20;2.80;;;;;;;;;;5104000;28;20228;-62
2021/10/02 08:14:19;;;;;;;6.13;3.00;;;;;;;;;;5111039;28;20221;-60
2021/10/02 08:16:50;;;;;;;6.67;2.70;;;;;;;;;;5110226;28;20205;-62
2021/10/02 08:19:19;;;;;;;4.27;3.07;;;;;;;;;;5107522;28;20202;-62
2021/10/02 08:21:48;;;;;;;4.33;2.70;;;;;;;;;;5108433;28;20289;-60
2021/10/02 08:24:16;;;;;;;4.90;3.13;;;;;;;;;;5111920;28;20653;-60
2021/10/02 08:26:46;;;;;;;3.20;2.73;;;;;;;;;;5110409;28;20228;-61
2021/10/02 08:29:14;;;;;;;3.07;2.60;;;;;;;;;;5111400;28;20201;-60
2021/10/02 08:31:44;;;;;;;5.07;3.33;;;;;;;;;;5108226;28;20284;-62
2021/10/02 08:34:24;;;;;;;4.00;2.70;;;;;;;;;;5107263;28;20669;-62
2021/10/02 08:36:52;;;;;;;6.20;3.17;;;;;;;;;;5110072;28;20198;-62
2021/10/02 08:39:20;;;;;;;5.23;2.90;;;;;;;;;;5108856;28;20724;-62
2021/10/02 08:41:49;;;;;;;4.43;3.00;;;;;;;;;;5109557;28;20679;-62
2021/10/02 08:44:20;;;;;;;5.03;3.33;;;;;;;;;;5107018;28;20229;-62
2021/10/02 08:46:50;;;;;;;4.77;2.80;;;;;;;;;;5109528;28;20211;-62
2021/10/02 08:49:32;;;;;;;6.20;2.97;;;;;;;;;;5111267;28;20652;-62
2021/10/02 08:52:00;;;;;;;5.20;2.87;;;;;;;;;;5109051;28;20277;-61
2021/10/02 08:54:29;;;;;;;4.60;3.23;;;;;;;;;;5107666;28;20273;-63
2021/10/02 08:56:57;;;;;;;3.67;2.90;;;;;;;;;;5109395;28;20223;-62
2021/10/02 08:59:25;;;;;;;4.03;2.90;;;;;;;;;;5108608;28;20280;-60
2021/10/02 09:01:55;;;;;;;5.93;3.23;;;;;;;;;;5109648;28;20200;-60
2021/10/02 09:04:23;;;;;;;4.90;2.93;;;;;;;;;;5107899;28;20581;-63
2021/10/02 09:06:51;;;;;;;6.30;4.30;;;;;;;;;;5110522;28;20213;-60
2021/10/02 09:09:21;;;;;;;6.33;3.80;;;;;;;;;;5109977;28;20197;-60
2021/10/02 09:11:51;;;;;;;5.43;3.50;;;;;;;;;;5109889;28;20284;-60
2021/10/02 09:14:19;;;;;;;6.23;3.77;;;;;;;;;;5108683;28;20256;-60
2021/10/02 09:16:47;;;;;;;8.13;4.50;;;;;;;;;;5109842;28;20570;-60
2021/10/02 09:19:17;;;;;;;5.53;4.23;;;;;;;;;;5108624;28;20212;-61
2021/10/02 09:21:47;;;;;;;6.13;4.80;;;;;;;;;;5107017;28;20220;-62
2021/10/02 09:24:22;;;;;;;6.13;4.60;;;;;;;;;;5110047;28;20220;-62
2021/10/02 09:26:50;;;;;;;7.57;3.90;;;;;;;;;;5107109;28;20208;-61
2021/10/02 09:29:18;;;;;;;7.00;4.33;;;;;;;;;;5106389;28;20201;-62
2021/10/02 09:31:46;;;;;;;4.60;3.80;;;;;;;;;;5108590;28;20672;-60
2021/10/02 09:34:25;;;;;;;5.87;3.63;;;;;;;;;;5107002;28;20223;-61
2021/10/02 09:36:53;;;;;;;5.90;3.90;;;;;;;;;;5114492;28;20220;-62
2021/10/02 09:39:21;;;;;;;3.90;3.10;;;;;;;;;;5106150;28;20565;-62
2021/10/02 09:41:50;;;;;;;3.70;2.90;;;;;;;;;;5108593;28;20206;-69
2021/10/02 09:44:21;;;;;;;4.40;3.07;;;;;;;;;;5106312;28;20311;-61
2021/10/02 09:46:49;;;;;;;3.17;2.87;;;;;;;;;;5128268;27;20206;-63
2021/10/02 09:49:17;;;;;;;3.60;2.83;;;;;;;;;;5137502;27;20219;-63
2021/10/02 09:51:47;;;;;;;4.17;2.57;;;;;;;;;;5119918;28;20241;-63
2021/10/02 09:54:36;;;;;;;4.27;3.87;;;;;;;;;;5120283;28;20243;-63
2021/10/02 09:57:08;;;;;;;4.10;2.87;;;;;;;;;;5120858;28;20231;-63
2021/10/02 09:59:36;;;;;;;5.53;3.10;;;;;;;;;;5120334;28;20205;-62
2021/10/02 10:02:14;;;;;;;6.20;3.37;;;;;;;;;;5119435;27;20201;-63
2021/10/02 10:04:49;;;;;;;7.20;3.47;;;;;;;;;;5119866;28;20224;-63
2021/10/02 10:07:18;;;;;;;4.80;3.73;;;;;;;;;;5119259;28;20345;-62
2021/10/02 10:10:01;;;;;;;6.37;3.73;;;;;;;;;;5119516;28;20251;-63
2021/10/02 10:12:30;;;;;;;8.00;3.80;;;;;;;;;;5117582;28;20284;-62
2021/10/02 10:14:58;;;;;;;6.40;4.83;;;;;;;;;;5119299;28;20231;-62
2021/10/02 10:17:32;;;;;;;4.00;3.07;;;;;;;;;;5119199;28;20200;-62
2021/10/02 10:20:05;;;;;;;3.30;2.63;;;;;;;;;;5119510;28;20295;-62
2021/10/02 10:22:34;;;;;;;3.87;3.10;;;;;;;;;;5119318;28;20209;-62
2021/10/02 10:25:04;;;;;;;3.60;2.87;;;;;;;;;;5118988;28;20228;-62
2021/10/02 10:27:33;;;;;;;5.60;2.90;;;;;;;;;;5119228;28;20204;-62
2021/10/02 10:30:08;;;;;;;4.00;2.80;;;;;;;;;;5119258;28;20202;-62
2021/10/02 10:32:36;;;;;;;3.30;2.93;;;;;;;;;;5118652;28;20298;-62
2021/10/02 10:35:05;;;;;;;4.23;2.63;;;;;;;;;;5118143;28;20226;-62
2021/10/02 10:37:35;;;;;;;4.20;3.10;;;;;;;;;;5118964;28;20207;-64
2021/10/02 10:40:03;;;;;;;3.43;2.90;;;;;;;;;;5118734;28;20284;-62
2021/10/02 10:42:31;;;;;;;2.97;2.57;;;;;;;;;;5117607;27;20200;-62
2021/10/02 10:45:00;;;;;;;6.77;2.70;;;;;;;;;;5139576;27;20222;-63
2021/10/02 10:47:28;;;;;;;3.80;3.00;;;;;;;;;;5139165;27;20207;-62
2021/10/02 10:49:56;;;;;;;3.33;2.80;;;;;;;;;;5130656;27;20239;-62
2021/10/02 10:52:24;;;;;;;3.13;2.73;;;;;;;;;;5118883;28;20209;-62
2021/10/02 10:54:54;;;;;;;9.47;3.13;;;;;;;;;;5118976;27;20257;-62
2021/10/02 10:57:38;;;;;;;4.43;3.30;;;;;;;;;;5118506;28;20313;-62
2021/10/02 11:00:09;;;;;;;3.47;3.17;;;;;;;;;;5118754;28;20209;-63
2021/10/02 11:02:44;;;;;;;4.87;3.40;;;;;;;;;;5118427;28;20206;-63
2021/10/02 11:05:31;;;;;;;4.43;3.07;;;;;;;;;;5137450;27;20228;-63
2021/10/02 11:07:59;;;;;;;8.23;3.67;;;;;;;;;;5109257;28;20254;-63
2021/10/02 11:10:48;;;;;;;5.00;2.90;;;;;;;;;;5107022;28;20226;-63
2021/10/02 11:13:17;;;;;;;4.23;2.87;;;;;;;;;;5109287;28;20197;-63
2021/10/02 11:15:46;;;;;;;3.40;2.73;;;;;;;;;;5105679;28;20225;-63
2021/10/02 11:18:32;;;;;;;3.80;3.10;;;;;;;;;;5104547;28;20217;-63
2021/10/02 11:21:01;;;;;;;6.23;3.00;;;;;;;;;;5105523;28;20283;-62
2021/10/02 11:24:02;;;;;;;4.60;2.80;;;;;;;;;;5103216;28;20197;-63
2021/10/02 11:26:41;;;;;;;4.07;2.90;;;;;;;;;;5105794;28;20606;-63
2021/10/02 11:29:16;;;;;;;4.33;2.87;;;;;;;;;;5103167;28;20202;-63
2021/10/02 11:31:44;;;;;;;4.20;2.70;;;;;;;;;;5107261;28;20243;-63
2021/10/02 11:34:16;;;;;;;3.77;3.13;;;;;;;;;;5104864;28;20218;-63
2021/10/02 11:36:46;;;;;;;4.63;3.67;;;;;;;;;;5104876;28;20212;-64
2021/10/02 11:39:18;;;;;;;5.77;2.97;;;;;;;;;;5102251;28;20203;-65
2021/10/02 11:41:49;;;;;;;4.33;3.47;;;;;;;;;;5100173;28;20611;-63
2021/10/02 11:44:37;;;;;;;4.80;3.17;;;;;;;;;;5102461;28;20784;-65
2021/10/02 11:47:22;;;;;;;6.47;3.40;;;;;;;;;;5104362;28;20201;-62
2021/10/02 11:50:28;;;;;;;4.37;3.17;;;;;;;;;;5104643;27;20281;-64
2021/10/02 11:53:14;;;;;;;7.17;3.10;;;;;;;;;;5104849;28;20636;-64
2021/10/02 11:55:48;;;;;;;5.07;2.90;;;;;;;;;;5095327;28;20308;-61
2021/10/02 11:58:18;;;;;;;4.57;2.77;;;;;;;;;;5105385;28;20203;-64
2021/10/02 12:00:47;;;;;;;4.40;3.13;;;;;;;;;;5099543;28;20210;-64
2021/10/02 12:03:16;;;;;;;3.70;2.93;;;;;;;;;;5103249;28;20205;-62
2021/10/02 12:05:46;;;;;;;3.47;3.00;;;;;;;;;;5105490;28;20224;-64
2021/10/02 12:08:14;;;;;;;4.70;3.00;;;;;;;;;;5114379;28;20203;-65
2021/10/02 12:10:55;;;;;;;3.33;2.83;;;;;;;;;;5116802;28;20245;-62
2021/10/02 12:13:26;;;;;;;3.53;2.63;;;;;;;;;;5116801;28;20232;-61
2021/10/02 12:16:01;;;;;;;4.80;3.50;;;;;;;;;;5117717;28;20204;-61
2021/10/02 12:18:49;;;;;;;4.53;2.87;;;;;;;;;;5119074;28;20209;-61
2021/10/02 12:21:26;;;;;;;5.73;2.90;;;;;;;;;;5118115;28;20210;-61
2021/10/02 12:23:55;;;;;;;6.23;2.97;;;;;;;;;;5117981;28;20226;-62
2021/10/02 12:26:24;;;;;;;4.13;3.00;;;;;;;;;;5118057;28;20204;-61
2021/10/02 12:28:58;;;;;;;3.93;2.90;;;;;;;;;;5118073;28;20207;-61
2021/10/02 12:31:40;;;;;;;2.77;2.57;;;;;;;;;;5117849;28;20218;-61
2021/10/02 12:34:16;;;;;;;6.10;2.70;;;;;;;;;;5117660;28;20358;-61
2021/10/02 12:36:46;;;;;;;3.17;2.67;;;;;;;;;;5117699;27;20223;-61
2021/10/02 12:39:14;;;;;;;3.20;2.70;;;;;;;;;;5118078;28;20210;-61
2021/10/02 12:41:42;;;;;;;3.57;2.33;;;;;;;;;;5117933;28;20212;-61
2021/10/02 12:44:23;;;;;;;6.17;3.33;;;;;;;;;;5117483;28;20736;-61
2021/10/02 12:46:51;;;;;;;3.27;2.60;;;;;;;;;;5116996;28;20207;-63
2021/10/02 12:49:20;;;;;;;2.33;2.13;;;;;;;;;;5117598;28;20270;-62
2021/10/02 12:51:48;;;;;;;2.87;2.57;;;;;;;;;;5117319;28;20246;-63
2021/10/02 12:54:17;;;;;;;4.63;2.50;;;;;;;;;;5117333;28;20227;-63
2021/10/02 12:57:05;;;;;;;2.50;2.30;;;;;;;;;;5117559;28;20696;-62
2021/10/02 12:59:49;;;;;;;3.47;2.17;;;;;;;;;;5121246;28;20212;-62
2021/10/02 13:02:18;;;;;;;3.23;2.23;;;;;;;;;;5121058;28;20206;-62
2021/10/02 13:04:47;;;;;;;3.03;2.00;;;;;;;;;;5120932;27;20241;-61
2021/10/02 13:07:29;;;;;;;1.90;1.70;;;;;;;;;;5121668;28;20203;-63
2021/10/02 13:09:59;;;;;;;2.03;1.80;;;;;;;;;;5121813;28;20204;-62
2021/10/02 13:12:28;;;;;;;7.43;2.37;;;;;;;;;;5121720;28;20205;-64
2021/10/02 13:14:59;;;;;;;3.17;1.90;;;;;;;;;;5120988;28;20235;-63
2021/10/02 13:17:27;;;;;;;5.77;2.10;;;;;;;;;;5120710;28;20232;-63
2021/10/02 13:20:05;;;;;;;6.10;2.33;;;;;;;;;;5121014;28;20208;-63
2021/10/02 13:22:38;;;;;;;5.53;2.50;;;;;;;;;;5120817;28;20213;-63
2021/10/02 13:25:08;;;;;;;2.03;1.87;;;;;;;;;;5120829;28;20225;-63
2021/10/02 13:27:38;;;;;;;5.13;2.00;;;;;;;;;;5120399;28;20644;-63
2021/10/02 13:30:09;;;;;;;4.43;2.50;;;;;;;;;;5120339;28;20206;-63
2021/10/02 13:32:37;;;;;;;2.13;1.90;;;;;;;;;;5120348;28;20212;-63
2021/10/02 13:35:07;;;;;;;3.17;2.17;;;;;;;;;;5120773;28;20225;-63
2021/10/02 13:37:35;;;;;;;2.53;1.83;;;;;;;;;;5120454;28;20224;-62
2021/10/02 13:40:05;;;;;;;2.17;1.97;;;;;;;;;;5120283;28;20287;-63
2021/10/02 13:42:34;;;;;;;6.10;2.33;;;;;;;;;;5120184;28;20208;-64
2021/10/02 13:45:02;;;;;;;2.83;2.47;;;;;;;;;;5120427;28;20223;-64
2021/10/02 13:47:31;;;;;;;3.27;2.13;;;;;;;;;;5119663;28;20289;-64
2021/10/02 13:49:59;;;;;;;2.00;1.90;;;;;;;;;;5119971;28;20235;-64
2021/10/02 13:52:27;;;;;;;3.07;2.10;;;;;;;;;;5120479;28;20201;-64
2021/10/02 13:54:55;;;;;;;3.87;1.87;;;;;;;;;;5119761;27;20222;-63
2021/10/02 13:57:27;;;;;;;2.50;2.30;;;;;;;;;;5119597;28;20754;-64
2021/10/02 13:59:55;;;;;;;4.20;2.27;;;;;;;;;;5120876;27;20543;-64
2021/10/02 14:02:23;;;;;;;3.43;2.10;;;;;;;;;;5120896;27;20195;-63
2021/10/02 14:04:53;;;;;;;3.00;2.37;;;;;;;;;;5121399;27;20231;-64
2021/10/02 14:07:20;;;;;;;2.60;2.40;;;;;;;;;;5117425;27;20201;-64
2021/10/02 14:09:48;;;;;;;3.60;1.97;;;;;;;;;;5121118;27;20192;-64
2021/10/02 14:12:17;;;;;;;3.07;2.10;;;;;;;;;;5119697;28;20200;-63
2021/10/02 14:14:45;;;;;;;3.37;1.97;;;;;;;;;;5121353;27;20593;-63
2021/10/02 14:17:13;;;;;;;3.67;1.90;;;;;;;;;;5118779;28;20200;-64
2021/10/02 14:19:41;;;;;;;2.23;1.90;;;;;;;;;;5118334;27;20200;-66
2021/10/02 14:22:11;;;;;;;4.03;3.07;;;;;;;;;;5120924;27;20197;-65
2021/10/02 14:24:39;;;;;;;4.33;1.67;;;;;;;;;;5120461;27;20710;-65
2021/10/02 14:27:07;;;;;;;2.87;2.03;;;;;;;;;;5116600;27;20203;-65
2021/10/02 14:29:37;;;;;;;4.43;2.27;;;;;;;;;;5121412;27;20201;-66
2021/10/02 14:32:05;;;;;;;2.50;1.87;;;;;;;;;;5118913;28;20208;-65
2021/10/02 14:34:33;;;;;;;3.20;2.10;;;;;;;;;;5119885;28;20222;-65
2021/10/02 14:37:01;;;;;;;3.13;2.40;;;;;;;;;;5116534;28;20279;-65
2021/10/02 14:39:30;;;;;;;3.07;2.00;;;;;;;;;;5120478;27;20224;-65
2021/10/02 14:41:58;;;;;;;3.87;2.33;;;;;;;;;;5120926;27;20194;-65
2021/10/02 14:44:26;;;;;;;3.90;2.10;;;;;;;;;;5118261;28;20259;-66
2021/10/02 14:46:54;;;;;;;5.03;2.33;;;;;;;;;;5120183;27;20197;-66
2021/10/02 14:49:22;;;;;;;4.03;2.67;;;;;;;;;;5115837;28;20603;-67
2021/10/02 14:51:51;;;;;;;3.23;2.00;;;;;;;;;;5118720;28;20697;-66
2021/10/02 14:54:22;;;;;;;2.67;2.00;;;;;;;;;;5118488;28;20792;-64
2021/10/02 14:56:52;;;;;;;2.53;2.03;;;;;;;;;;5118996;28;20207;-63
2021/10/02 14:59:20;;;;;;;4.27;2.00;;;;;;;;;;5119120;28;20261;-64
2021/10/02 15:01:48;;;;;;;4.80;2.10;;;;;;;;;;5118759;28;20304;-65
2021/10/02 15:04:17;;;;;;;3.60;2.13;;;;;;;;;;5110238;28;20224;-64
2021/10/02 15:06:46;;;;;;;1.97;1.87;;;;;;;;;;5118800;28;20207;-63
2021/10/02 15:09:14;;;;;;;2.73;2.00;;;;;;;;;;5118467;28;20198;-64
2021/10/02 15:11:42;;;;;;;2.67;2.20;;;;;;;;;;5118473;28;20206;-64
2021/10/02 15:14:12;;;;;;;1.90;1.70;;;;;;;;;;5118483;28;20226;-65
2021/10/02 15:16:40;;;;;;;4.93;2.10;;;;;;;;;;5117767;27;20687;-64
2021/10/02 15:19:09;;;;;;;2.40;1.87;;;;;;;;;;5118193;28;20282;-64
2021/10/02 15:21:40;;;;;;;2.10;1.90;;;;;;;;;;5118308;28;20208;-65
2021/10/02 15:24:09;;;;;;;1.80;1.70;;;;;;;;;;5118479;28;20235;-64
2021/10/02 15:26:39;;;;;;;3.90;2.10;;;;;;;;;;5118637;28;20206;-64
2021/10/02 15:29:07;;;;;;;4.50;2.57;;;;;;;;;;5118368;28;20667;-65
2021/10/02 15:31:37;;;;;;;3.10;1.87;;;;;;;;;;5118184;28;20211;-65
2021/10/02 15:34:06;;;;;;;5.63;2.43;;;;;;;;;;5117906;28;20346;-64
2021/10/02 15:36:35;;;;;;;3.57;2.40;;;;;;;;;;5118319;28;20216;-64
2021/10/02 15:39:04;;;;;;;5.10;2.67;;;;;;;;;;5118062;28;20585;-63
2021/10/02 15:41:32;;;;;;;4.40;2.30;;;;;;;;;;5118245;28;20212;-64
2021/10/02 15:44:00;;;;;;;3.57;2.03;;;;;;;;;;5118227;28;20237;-64
2021/10/02 15:46:28;;;;;;;5.97;2.23;;;;;;;;;;5117916;28;20292;-64